createdAt,value
2022-12-31T00:00:11.630Z,10.74
2022-12-31T00:02:39.290Z,10.88
2022-12-31T00:05:08.149Z,11.02
2022-12-31T00:10:02.477Z,10.72
2022-12-31T00:12:31.313Z,10.58
2022-12-31T00:14:58.814Z,10.50
2022-12-31T00:17:26.362Z,10.39
2022-12-31T00:19:53.899Z,10.55
2022-12-31T00:22:21.429Z,10.36
2022-12-31T00:24:48.911Z,10.38
2022-12-31T00:27:16.710Z,10.39
2022-12-31T00:29:45.547Z,10.43
2022-12-31T00:32:13.051Z,10.43
2022-12-31T00:34:40.556Z,10.53
2022-12-31T00:37:08.089Z,10.64
2022-12-31T00:39:35.604Z,10.67
2022-12-31T00:42:03.101Z,10.67
2022-12-31T00:44:31.956Z,10.79
2022-12-31T00:47:00.760Z,10.42
2022-12-31T00:49:28.253Z,10.46
2022-12-31T00:51:55.738Z,10.45
2022-12-31T00:54:23.213Z,10.42
2022-12-31T00:56:50.737Z,10.38
2022-12-31T00:59:18.256Z,10.36
2022-12-31T01:01:45.896Z,10.64
2022-12-31T01:04:17.413Z,10.74
2022-12-31T01:06:45.062Z,10.99
2022-12-31T01:09:14.309Z,10.98
2022-12-31T01:11:42.195Z,11.38
2022-12-31T01:14:11.668Z,11.38
2022-12-31T01:16:41.338Z,11.25
2022-12-31T01:19:11.442Z,11.31
2022-12-31T01:21:41.537Z,11.24
2022-12-31T01:24:10.151Z,11.44
2022-12-31T01:26:38.321Z,11.45
2022-12-31T01:29:07.415Z,11.66
2022-12-31T01:31:36.243Z,11.48
2022-12-31T01:34:04.275Z,11.33
2022-12-31T01:36:33.903Z,11.05
2022-12-31T01:39:05.401Z,11.18
2022-12-31T01:41:35.496Z,11.10
2022-12-31T01:44:24.113Z,11.05
2022-12-31T01:46:54.598Z,10.96
2022-12-31T01:49:24.883Z,10.86
2022-12-31T01:51:58.626Z,11.11
2022-12-31T01:54:30.681Z,11.52
2022-12-31T01:56:58.959Z,11.39
2022-12-31T01:59:29.138Z,11.74
2022-12-31T02:01:57.276Z,11.64
2022-12-31T02:04:26.611Z,11.76
2022-12-31T02:06:58.638Z,11.76
2022-12-31T02:09:27.556Z,11.58
2022-12-31T02:11:55.057Z,11.67
2022-12-31T02:14:26.042Z,11.65
2022-12-31T02:17:03.085Z,11.39
2022-12-31T02:20:04.940Z,11.55
2022-12-31T02:22:48.523Z,11.74
2022-12-31T02:25:51.663Z,12.18
2022-12-31T02:28:31.759Z,12.04
2022-12-31T02:31:07.682Z,11.81
2022-12-31T02:33:41.227Z,11.54
2022-12-31T02:36:14.206Z,11.90
2022-12-31T02:38:44.697Z,11.83
2022-12-31T02:41:34.533Z,11.57
2022-12-31T02:44:02.104Z,11.26
2022-12-31T02:46:42.295Z,11.52
2022-12-31T02:49:17.306Z,11.19
2022-12-31T02:51:55.151Z,11.20
2022-12-31T02:54:34.239Z,11.48
2022-12-31T02:57:11.275Z,11.48
2022-12-31T03:00:04.673Z,11.89
2022-12-31T03:02:36.371Z,11.82
2022-12-31T03:05:04.748Z,11.78
2022-12-31T03:07:33.810Z,11.84
2022-12-31T03:10:02.284Z,11.65
2022-12-31T03:12:49.467Z,11.48
2022-12-31T03:15:22.491Z,11.54
2022-12-31T03:17:57.300Z,11.16
2022-12-31T03:20:45.050Z,11.26
2022-12-31T03:23:14.641Z,11.29
2022-12-31T03:25:41.203Z,11.50
2022-12-31T03:28:10.441Z,11.65
2022-12-31T03:30:39.410Z,11.48
2022-12-31T03:33:09.400Z,11.88
2022-12-31T03:35:38.435Z,11.75
2022-12-31T03:38:06.323Z,11.52
2022-12-31T03:40:37.904Z,11.77
2022-12-31T03:43:05.405Z,11.65
2022-12-31T03:45:34.223Z,11.59
2022-12-31T03:48:01.856Z,11.63
2022-12-31T03:50:30.720Z,11.76
2022-12-31T03:52:58.339Z,11.79
2022-12-31T03:55:26.339Z,12.02
2022-12-31T03:57:53.851Z,11.51
2022-12-31T04:00:22.698Z,11.59
2022-12-31T04:02:50.853Z,11.40
2022-12-31T04:05:19.665Z,11.22
2022-12-31T04:07:49.361Z,11.35
2022-12-31T04:10:19.187Z,11.20
2022-12-31T04:12:47.148Z,11.24
2022-12-31T04:15:18.148Z,11.32
2022-12-31T04:17:45.650Z,11.06
2022-12-31T04:20:13.229Z,11.08
2022-12-31T04:22:40.925Z,11.03
2022-12-31T04:25:11.864Z,10.92
2022-12-31T04:27:40.698Z,10.91
2022-12-31T04:30:09.295Z,10.80
2022-12-31T04:32:36.784Z,11.11
2022-12-31T04:35:04.582Z,11.09
2022-12-31T04:37:32.086Z,11.47
2022-12-31T04:40:05.537Z,11.55
2022-12-31T04:42:35.640Z,12.08
2022-12-31T04:45:03.326Z,12.43
2022-12-31T04:47:30.952Z,12.32
2022-12-31T04:49:58.448Z,12.41
2022-12-31T04:52:25.964Z,12.36
2022-12-31T04:54:53.479Z,12.39
2022-12-31T04:57:20.998Z,12.39
2022-12-31T04:59:49.810Z,12.32
2022-12-31T05:02:17.475Z,12.36
2022-12-31T05:04:45.124Z,12.26
2022-12-31T05:07:12.707Z,12.20
2022-12-31T05:09:40.185Z,12.56
2022-12-31T05:12:07.837Z,12.37
2022-12-31T05:14:35.310Z,12.31
2022-12-31T05:17:04.228Z,12.26
2022-12-31T05:19:31.769Z,12.50
2022-12-31T05:22:17.180Z,12.61
2022-12-31T05:24:44.675Z,12.20
2022-12-31T05:27:12.157Z,12.21
2022-12-31T05:29:39.627Z,12.41
2022-12-31T05:32:08.447Z,12.30
2022-12-31T05:34:35.929Z,12.38
2022-12-31T05:37:03.470Z,12.57
2022-12-31T05:39:31.056Z,12.57
2022-12-31T05:41:58.586Z,12.51
2022-12-31T05:44:26.069Z,12.51
2022-12-31T05:46:53.575Z,12.64
2022-12-31T05:49:22.390Z,12.62
2022-12-31T05:51:49.923Z,12.63
2022-12-31T05:54:17.394Z,12.84
2022-12-31T05:56:44.942Z,12.61
2022-12-31T05:59:12.425Z,12.56
2022-12-31T06:01:39.966Z,12.61
2022-12-31T06:04:07.521Z,12.48
2022-12-31T06:06:36.371Z,12.61
2022-12-31T06:09:04.501Z,12.77
2022-12-31T06:11:32.013Z,12.40
2022-12-31T06:13:59.516Z,12.31
2022-12-31T06:16:27.756Z,12.23
2022-12-31T06:18:55.505Z,12.17
2022-12-31T06:21:23.794Z,12.25
2022-12-31T06:23:52.623Z,12.34
2022-12-31T06:26:20.105Z,12.25
2022-12-31T06:28:47.631Z,12.52
2022-12-31T06:31:16.487Z,12.48
2022-12-31T06:33:44.360Z,12.49
2022-12-31T06:36:14.719Z,12.30
2022-12-31T06:38:43.776Z,12.03
2022-12-31T06:41:14.115Z,12.24
2022-12-31T06:43:42.242Z,12.17
2022-12-31T06:46:11.399Z,12.28
2022-12-31T06:48:39.801Z,12.29
2022-12-31T06:51:15.035Z,12.26
2022-12-31T06:53:44.637Z,12.26
2022-12-31T06:56:17.143Z,11.77
2022-12-31T06:58:45.964Z,11.65
2022-12-31T07:01:31.499Z,11.38
2022-12-31T07:04:06.159Z,11.40
2022-12-31T07:06:38.475Z,11.40
2022-12-31T07:09:11.782Z,11.29
2022-12-31T07:11:53.453Z,11.46
2022-12-31T07:14:31.012Z,11.15
2022-12-31T07:17:11.955Z,11.23
2022-12-31T07:19:57.364Z,11.60
2022-12-31T07:22:25.833Z,11.84
2022-12-31T07:24:54.006Z,11.91
2022-12-31T07:27:49.692Z,12.04
2022-12-31T07:30:20.527Z,12.26
2022-12-31T07:33:06.955Z,12.31
2022-12-31T07:35:45.030Z,12.43
2022-12-31T07:38:28.885Z,12.36
2022-12-31T07:41:10.031Z,12.55
2022-12-31T07:43:49.460Z,12.54
2022-12-31T07:46:23.477Z,12.74
2022-12-31T07:48:51.550Z,12.75
2022-12-31T07:51:19.583Z,12.64
2022-12-31T07:53:47.058Z,13.10
2022-12-31T07:56:14.837Z,13.11
2022-12-31T07:59:02.318Z,13.28
2022-12-31T08:01:41.391Z,13.28
2022-12-31T08:04:16.709Z,13.01
2022-12-31T08:06:50.227Z,13.12
2022-12-31T08:09:33.242Z,12.97
2022-12-31T08:12:02.718Z,12.99
2022-12-31T08:14:37.091Z,13.09
2022-12-31T08:17:05.011Z,13.36
2022-12-31T08:19:33.772Z,13.26
2022-12-31T08:22:27.696Z,13.07
2022-12-31T08:25:04.971Z,12.95
2022-12-31T08:27:42.159Z,13.02
2022-12-31T08:30:14.658Z,13.13
2022-12-31T08:32:47.492Z,13.33
2022-12-31T08:35:28.017Z,13.30
2022-12-31T08:38:03.483Z,13.57
2022-12-31T08:40:40.074Z,13.87
2022-12-31T08:43:30.951Z,14.05
2022-12-31T08:46:01.385Z,14.60
2022-12-31T08:48:34.303Z,14.84
2022-12-31T08:51:02.146Z,15.02
2022-12-31T08:53:30.310Z,15.04
2022-12-31T08:56:05.982Z,15.29
2022-12-31T08:58:46.281Z,15.62
2022-12-31T09:01:18.998Z,16.34
2022-12-31T09:04:02.566Z,16.57
2022-12-31T09:06:34.844Z,16.35
2022-12-31T09:09:11.222Z,16.74
2022-12-31T09:11:51.477Z,16.64
2022-12-31T09:14:41.413Z,16.85
2022-12-31T09:17:33.443Z,16.55
2022-12-31T09:20:01.474Z,16.80
2022-12-31T09:22:29.499Z,17.19
2022-12-31T09:24:57.352Z,17.18
2022-12-31T09:27:31.247Z,17.25
2022-12-31T09:30:04.517Z,17.15
2022-12-31T09:32:42.941Z,16.88
2022-12-31T09:35:17.357Z,17.04
2022-12-31T09:37:48.467Z,16.66
2022-12-31T09:40:42.693Z,16.39
2022-12-31T09:43:36.700Z,16.60
2022-12-31T09:46:58.365Z,16.54
2022-12-31T09:49:57.228Z,16.77
2022-12-31T09:52:34.019Z,16.71
2022-12-31T09:55:14.264Z,16.84
2022-12-31T09:57:42.810Z,17.16
2022-12-31T10:00:14.172Z,16.90
2022-12-31T10:02:58.481Z,16.73
2022-12-31T10:05:46.637Z,16.69
2022-12-31T10:08:30.355Z,16.64
2022-12-31T10:11:02.027Z,16.53
2022-12-31T10:13:49.048Z,16.49
2022-12-31T10:16:37.605Z,16.09
2022-12-31T10:19:31.417Z,16.56
2022-12-31T10:22:15.214Z,16.24
2022-12-31T10:24:55.242Z,16.32
2022-12-31T10:27:36.385Z,16.47
2022-12-31T10:30:13.356Z,16.54
2022-12-31T10:32:44.721Z,16.52
2022-12-31T10:35:22.519Z,16.55
2022-12-31T10:37:57.465Z,16.50
2022-12-31T10:40:40.975Z,16.27
2022-12-31T10:43:34.935Z,16.05
2022-12-31T10:46:44.953Z,16.19
2022-12-31T10:49:39.759Z,16.36
2022-12-31T10:52:41.946Z,16.45
2022-12-31T10:55:33.622Z,16.58
2022-12-31T10:58:36.240Z,16.84
2022-12-31T11:01:12.645Z,16.94
2022-12-31T11:04:18.688Z,17.42
2022-12-31T11:07:17.747Z,17.79
2022-12-31T11:10:18.634Z,17.65
2022-12-31T11:13:15.347Z,17.44
2022-12-31T11:15:58.537Z,17.70
2022-12-31T11:18:36.987Z,17.30
2022-12-31T11:21:26.236Z,17.49
2022-12-31T11:24:06.749Z,17.59
2022-12-31T11:26:50.441Z,17.60
2022-12-31T11:29:44.301Z,17.56
2022-12-31T11:32:24.109Z,17.38
2022-12-31T11:35:09.413Z,17.35
2022-12-31T11:37:43.479Z,17.15
2022-12-31T11:40:27.472Z,17.05
2022-12-31T11:42:59.708Z,17.09
2022-12-31T11:45:44.403Z,17.15
2022-12-31T11:48:30.582Z,17.63
2022-12-31T11:51:11.418Z,17.37
2022-12-31T11:54:12.378Z,17.35
2022-12-31T11:56:42.196Z,17.47
2022-12-31T11:59:19.086Z,17.74
2022-12-31T12:01:56.869Z,17.77
2022-12-31T12:04:24.706Z,17.71
2022-12-31T12:06:53.273Z,17.84
2022-12-31T12:09:27.347Z,17.83
2022-12-31T12:12:00.575Z,17.96
2022-12-31T12:14:33.828Z,17.81
2022-12-31T12:17:05.411Z,18.00
2022-12-31T12:19:34.800Z,18.01
2022-12-31T12:22:11.823Z,17.76
2022-12-31T12:24:39.360Z,17.92
2022-12-31T12:27:22.113Z,18.51
2022-12-31T12:29:49.709Z,18.87
2022-12-31T12:32:20.715Z,19.34
2022-12-31T12:34:50.093Z,19.60
2022-12-31T12:37:28.831Z,19.35
2022-12-31T12:39:58.428Z,19.51
2022-12-31T12:42:25.974Z,18.67
2022-12-31T12:45:02.638Z,18.66
2022-12-31T12:47:32.055Z,18.60
2022-12-31T12:50:00.271Z,18.62
2022-12-31T12:52:56.267Z,18.62
2022-12-31T12:55:34.355Z,19.07
2022-12-31T12:58:14.140Z,19.74
2022-12-31T13:00:53.932Z,19.71
2022-12-31T13:03:36.821Z,19.71
2022-12-31T13:06:23.478Z,18.96
2022-12-31T13:09:03.611Z,18.40
2022-12-31T13:11:41.738Z,18.00
2022-12-31T13:14:19.788Z,17.71
2022-12-31T13:16:56.257Z,17.96
2022-12-31T13:19:33.821Z,18.07
2022-12-31T13:22:06.264Z,18.08
2022-12-31T13:24:47.868Z,18.22
2022-12-31T13:27:22.003Z,18.00
2022-12-31T13:29:50.036Z,17.95
2022-12-31T13:32:23.367Z,18.71
2022-12-31T13:34:57.353Z,18.90
2022-12-31T13:37:31.521Z,19.08
2022-12-31T13:40:03.803Z,18.97
2022-12-31T13:42:41.266Z,18.61
2022-12-31T13:45:15.617Z,18.91
2022-12-31T13:47:47.474Z,18.97
2022-12-31T13:50:20.502Z,18.94
2022-12-31T13:52:56.826Z,18.31
2022-12-31T13:55:27.531Z,18.09
2022-12-31T13:58:02.697Z,18.47
2022-12-31T14:00:35.450Z,18.72
2022-12-31T14:03:12.271Z,18.65
2022-12-31T14:05:47.590Z,18.52
2022-12-31T14:08:15.206Z,18.37
2022-12-31T14:10:52.230Z,18.44
2022-12-31T14:13:35.263Z,18.45
2022-12-31T14:16:17.421Z,18.46
2022-12-31T14:18:56.409Z,18.37
2022-12-31T14:21:30.481Z,18.45
2022-12-31T14:24:07.559Z,18.14
2022-12-31T14:26:39.577Z,17.86
2022-12-31T14:29:21.891Z,17.60
2022-12-31T14:32:09.667Z,17.74
2022-12-31T14:34:47.453Z,17.38
2022-12-31T14:37:23.125Z,17.08
2022-12-31T14:39:58.846Z,17.01
2022-12-31T14:42:33.808Z,16.95
2022-12-31T14:45:16.112Z,16.89
2022-12-31T14:47:52.866Z,16.79
2022-12-31T14:50:24.889Z,16.45
2022-12-31T14:52:55.626Z,16.37
2022-12-31T14:55:29.672Z,15.97
2022-12-31T14:58:27.024Z,15.89
2022-12-31T15:00:54.655Z,15.77
2022-12-31T15:03:27.647Z,15.85
2022-12-31T15:06:02.125Z,15.65
2022-12-31T15:08:47.940Z,15.39
2022-12-31T15:11:29.643Z,15.56
2022-12-31T15:14:38.169Z,15.04
2022-12-31T15:17:16.959Z,15.06
2022-12-31T15:20:00.611Z,14.96
2022-12-31T15:22:38.153Z,14.85
2022-12-31T15:25:21.989Z,14.70
2022-12-31T15:27:50.006Z,14.60
2022-12-31T15:30:37.588Z,14.57
2022-12-31T15:33:09.838Z,14.65
2022-12-31T15:35:49.838Z,14.58
2022-12-31T15:38:36.904Z,14.67
2022-12-31T15:41:17.946Z,14.66
2022-12-31T15:43:49.411Z,14.61
2022-12-31T15:46:20.846Z,14.47
2022-12-31T15:48:55.416Z,14.31
2022-12-31T15:51:30.366Z,13.80
2022-12-31T15:54:00.764Z,13.96
2022-12-31T15:56:35.710Z,13.88
2022-12-31T15:59:06.370Z,13.69
2022-12-31T16:01:37.869Z,13.82
2022-12-31T16:04:08.740Z,13.88
2022-12-31T16:06:38.553Z,13.70
2022-12-31T16:09:10.406Z,13.71
2022-12-31T16:11:41.768Z,13.91
2022-12-31T16:14:19.163Z,13.73
2022-12-31T16:16:53.474Z,13.54
2022-12-31T16:19:29.092Z,13.16
2022-12-31T16:21:57.877Z,12.95
2022-12-31T16:24:29.700Z,13.27
2022-12-31T16:27:01.985Z,12.88
2022-12-31T16:29:30.799Z,12.75
2022-12-31T16:31:58.527Z,12.73
2022-12-31T16:34:28.264Z,12.75
2022-12-31T16:36:57.719Z,12.67
2022-12-31T16:39:29.173Z,12.67
2022-12-31T16:42:19.392Z,12.48
2022-12-31T16:44:47.986Z,12.47
2022-12-31T16:47:20.098Z,12.26
2022-12-31T16:49:49.470Z,12.48
2022-12-31T16:52:28.532Z,12.37
2022-12-31T16:54:57.974Z,12.23
2022-12-31T16:57:32.271Z,12.17
2022-12-31T17:00:03.605Z,12.06
2022-12-31T17:02:36.493Z,11.88
2022-12-31T17:05:04.289Z,12.11
2022-12-31T17:07:40.684Z,12.00
2022-12-31T17:10:20.328Z,11.89
2022-12-31T17:13:26.921Z,11.88
2022-12-31T17:15:43.686Z,11.76
2022-12-31T17:18:18.349Z,11.87
2022-12-31T17:20:46.043Z,11.96
2022-12-31T17:23:23.757Z,11.97
2022-12-31T17:25:58.807Z,11.92
2022-12-31T17:28:31.353Z,11.81
2022-12-31T17:31:21.071Z,11.79
2022-12-31T17:33:48.701Z,11.63
2022-12-31T17:36:22.928Z,11.59
2022-12-31T17:38:51.192Z,11.61
2022-12-31T17:41:26.098Z,11.58
2022-12-31T17:43:57.383Z,11.35
2022-12-31T17:46:26.484Z,11.24
2022-12-31T17:48:58.492Z,11.25
2022-12-31T17:51:25.985Z,11.15
2022-12-31T17:53:53.484Z,11.19
2022-12-31T17:56:21.721Z,11.05
2022-12-31T17:58:51.868Z,11.13
2022-12-31T18:01:23.836Z,11.16
2022-12-31T18:03:52.367Z,10.97
2022-12-31T18:06:20.201Z,11.10
2022-12-31T18:08:47.992Z,11.23
2022-12-31T18:11:19.167Z,11.24
2022-12-31T18:13:46.939Z,11.28
2022-12-31T18:16:14.640Z,11.51
2022-12-31T18:18:45.162Z,11.25
2022-12-31T18:21:18.672Z,11.07
2022-12-31T18:23:49.107Z,11.19
2022-12-31T18:26:18.868Z,11.22
2022-12-31T18:28:46.689Z,11.44
2022-12-31T18:31:17.480Z,11.17
2022-12-31T18:33:47.091Z,10.73
2022-12-31T18:36:16.970Z,10.98
2022-12-31T18:38:44.778Z,11.00
2022-12-31T18:41:17.914Z,11.28
2022-12-31T18:43:45.863Z,11.07
2022-12-31T18:46:15.083Z,10.90
2022-12-31T18:48:42.572Z,11.01
2022-12-31T18:51:14.428Z,10.83
2022-12-31T18:53:41.919Z,10.77
2022-12-31T18:56:12.147Z,10.87
2022-12-31T18:58:39.749Z,10.86
2022-12-31T19:01:10.740Z,10.78
2022-12-31T19:03:38.304Z,10.95
2022-12-31T19:06:06.060Z,10.99
2022-12-31T19:08:34.883Z,10.99
2022-12-31T19:11:02.587Z,11.00
2022-12-31T19:13:30.060Z,11.14
2022-12-31T19:15:58.625Z,10.92
2022-12-31T19:18:26.095Z,10.74
2022-12-31T19:20:53.607Z,10.93
2022-12-31T19:23:22.489Z,10.77
2022-12-31T19:25:51.429Z,10.77
2022-12-31T19:28:21.650Z,10.60
2022-12-31T19:30:49.396Z,10.89
2022-12-31T19:33:17.772Z,10.84
2022-12-31T19:35:46.575Z,10.79
2022-12-31T19:38:18.926Z,10.69
2022-12-31T19:40:47.162Z,10.72
2022-12-31T19:43:18.055Z,10.46
2022-12-31T19:45:46.266Z,10.52
2022-12-31T19:48:15.334Z,10.67
2022-12-31T19:50:44.686Z,10.70
2022-12-31T19:53:14.151Z,10.62
2022-12-31T19:55:42.220Z,10.59
2022-12-31T19:58:16.308Z,10.43
2022-12-31T20:00:51.239Z,10.27
2022-12-31T20:03:22.616Z,10.06
2022-12-31T20:05:50.184Z,10.11
2022-12-31T20:08:20.217Z,9.99
2022-12-31T20:10:47.789Z,10.02
2022-12-31T20:13:15.261Z,10.12
2022-12-31T20:15:47.530Z,10.24
2022-12-31T20:18:20.923Z,10.34
2022-12-31T20:20:55.339Z,10.50
2022-12-31T20:23:23.448Z,10.63
2022-12-31T20:25:57.869Z,10.61
2022-12-31T20:28:25.452Z,10.55
2022-12-31T20:30:53.178Z,10.91
2022-12-31T20:33:22.427Z,10.94
2022-12-31T20:35:49.938Z,11.06
2022-12-31T20:38:17.442Z,11.25
2022-12-31T20:40:47.130Z,11.44
2022-12-31T20:43:14.890Z,11.20
2022-12-31T20:45:42.715Z,11.16
2022-12-31T20:48:10.247Z,10.92
2022-12-31T20:50:39.088Z,10.83
2022-12-31T20:53:07.527Z,10.86
2022-12-31T20:55:38.269Z,10.58
2022-12-31T20:58:06.270Z,10.15
2022-12-31T21:00:33.787Z,10.04
2022-12-31T21:03:10.809Z,10.10
2022-12-31T21:05:51.700Z,10.05
2022-12-31T21:08:20.353Z,10.01
2022-12-31T21:10:49.171Z,10.16
2022-12-31T21:13:18.683Z,10.38
2022-12-31T21:15:48.514Z,10.64
2022-12-31T21:18:16.565Z,10.39
2022-12-31T21:20:47.109Z,10.37
2022-12-31T21:23:16.469Z,10.30
2022-12-31T21:25:44.998Z,10.41
2022-12-31T21:28:13.773Z,10.23
2022-12-31T21:30:42.201Z,10.16
2022-12-31T21:33:09.741Z,10.14
2022-12-31T21:35:43.721Z,10.31
2022-12-31T21:38:13.016Z,10.41
2022-12-31T21:40:41.927Z,10.35
2022-12-31T21:43:09.416Z,10.39
2022-12-31T21:45:36.907Z,10.25
2022-12-31T21:48:24.836Z,10.21
2022-12-31T21:50:54.462Z,10.26
2022-12-31T21:53:29.055Z,10.31
2022-12-31T21:56:12.289Z,10.38
2022-12-31T21:58:41.752Z,10.30
2022-12-31T22:01:41.188Z,10.50
2022-12-31T22:04:28.277Z,10.47
2022-12-31T22:06:56.246Z,10.56
2022-12-31T22:09:23.743Z,10.62
2022-12-31T22:11:52.557Z,10.67
2022-12-31T22:14:20.041Z,10.53
2022-12-31T22:16:47.535Z,10.78
2022-12-31T22:19:15.209Z,10.75
2022-12-31T22:21:42.725Z,10.62
2022-12-31T22:24:10.425Z,10.81
2022-12-31T22:26:43.035Z,10.92
2022-12-31T22:29:13.588Z,10.95
2022-12-31T22:31:41.276Z,11.18
2022-12-31T22:34:09.020Z,11.16
2022-12-31T22:36:36.609Z,11.09
2022-12-31T22:39:04.263Z,10.91
2022-12-31T22:41:31.784Z,10.84
2022-12-31T22:44:04.612Z,10.90
2022-12-31T22:46:35.394Z,10.97
2022-12-31T22:49:04.990Z,10.97
2022-12-31T22:51:54.774Z,10.88
2022-12-31T22:54:20.961Z,10.66
2022-12-31T22:56:48.701Z,10.50
2022-12-31T22:59:16.210Z,10.57
2022-12-31T23:01:45.290Z,10.68
2022-12-31T23:04:13.084Z,10.88
2022-12-31T23:06:44.127Z,11.00
2022-12-31T23:09:29.509Z,10.97
2022-12-31T23:11:57.051Z,11.05
2022-12-31T23:14:42.069Z,11.04
2022-12-31T23:17:33.403Z,11.15
2022-12-31T23:20:18.958Z,11.20
2022-12-31T23:23:03.992Z,11.48
2022-12-31T23:25:32.379Z,11.80
2022-12-31T23:27:59.907Z,11.87
2022-12-31T23:30:27.593Z,11.91
2022-12-31T23:32:56.607Z,11.48
2022-12-31T23:35:24.218Z,11.82
2022-12-31T23:37:51.739Z,11.76
2022-12-31T23:40:21.807Z,11.73
2022-12-31T23:42:49.799Z,11.85
2022-12-31T23:45:17.450Z,11.84
2022-12-31T23:47:44.948Z,11.75
2022-12-31T23:50:13.795Z,11.31
2022-12-31T23:52:41.302Z,11.16
2022-12-31T23:55:09.447Z,11.66
2022-12-31T23:57:36.939Z,11.63
